sensor_id;sensor_type;location;lat;lon;timestamp;P1;durP1;ratioP1;P2;durP2;ratioP2
61806;SDS011;47726;52.766;6.606;2022-07-10T00:00:35;7.88;;;2.42;;
61806;SDS011;47726;52.766;6.606;2022-07-10T00:03:01;8.35;;;2.40;;
61806;SDS011;47726;52.766;6.606;2022-07-10T00:05:27;6.88;;;2.20;;
61806;SDS011;47726;52.766;6.606;2022-07-10T00:07:53;7.22;;;2.20;;
61806;SDS011;47726;52.766;6.606;2022-07-10T00:10:19;7.80;;;2.10;;
61806;SDS011;47726;52.766;6.606;2022-07-10T00:12:45;9.43;;;2.20;;
61806;SDS011;47726;52.766;6.606;2022-07-10T00:15:12;8.48;;;2.03;;
61806;SDS011;47726;52.766;6.606;2022-07-10T00:17:38;9.65;;;2.40;;
61806;SDS011;47726;52.766;6.606;2022-07-10T00:20:06;10.40;;;2.05;;
61806;SDS011;47726;52.766;6.606;2022-07-10T00:22:35;7.63;;;1.90;;
61806;SDS011;47726;52.766;6.606;2022-07-10T00:25:03;6.65;;;2.20;;
61806;SDS011;47726;52.766;6.606;2022-07-10T00:27:29;9.98;;;2.20;;
61806;SDS011;47726;52.766;6.606;2022-07-10T00:29:54;9.27;;;1.98;;
61806;SDS011;47726;52.766;6.606;2022-07-10T00:32:20;7.07;;;2.10;;
61806;SDS011;47726;52.766;6.606;2022-07-10T00:34:45;7.28;;;1.80;;
61806;SDS011;47726;52.766;6.606;2022-07-10T00:37:11;7.05;;;2.10;;
61806;SDS011;47726;52.766;6.606;2022-07-10T00:39:36;7.82;;;2.00;;
61806;SDS011;47726;52.766;6.606;2022-07-10T00:42:09;9.00;;;2.05;;
61806;SDS011;47726;52.766;6.606;2022-07-10T00:44:37;7.82;;;2.20;;
61806;SDS011;47726;52.766;6.606;2022-07-10T00:47:06;8.80;;;2.30;;
61806;SDS011;47726;52.766;6.606;2022-07-10T00:49:33;8.07;;;2.20;;
61806;SDS011;47726;52.766;6.606;2022-07-10T00:51:59;8.70;;;2.17;;
61806;SDS011;47726;52.766;6.606;2022-07-10T00:54:27;7.13;;;2.20;;
61806;SDS011;47726;52.766;6.606;2022-07-10T00:56:54;7.32;;;2.08;;
61806;SDS011;47726;52.766;6.606;2022-07-10T00:59:20;8.18;;;2.35;;
61806;SDS011;47726;52.766;6.606;2022-07-10T01:01:47;7.53;;;2.40;;
61806;SDS011;47726;52.766;6.606;2022-07-10T01:04:14;8.35;;;2.35;;
61806;SDS011;47726;52.766;6.606;2022-07-10T01:06:40;6.88;;;2.00;;
61806;SDS011;47726;52.766;6.606;2022-07-10T01:09:06;5.75;;;2.25;;
61806;SDS011;47726;52.766;6.606;2022-07-10T01:11:33;8.63;;;2.20;;
61806;SDS011;47726;52.766;6.606;2022-07-10T01:14:00;6.65;;;2.00;;
61806;SDS011;47726;52.766;6.606;2022-07-10T01:16:26;9.25;;;2.15;;
61806;SDS011;47726;52.766;6.606;2022-07-10T01:18:52;7.82;;;2.05;;
61806;SDS011;47726;52.766;6.606;2022-07-10T01:23:53;8.55;;;2.13;;
61806;SDS011;47726;52.766;6.606;2022-07-10T01:26:19;9.57;;;2.20;;
61806;SDS011;47726;52.766;6.606;2022-07-10T01:28:51;7.88;;;2.03;;
61806;SDS011;47726;52.766;6.606;2022-07-10T01:31:18;7.45;;;1.90;;
61806;SDS011;47726;52.766;6.606;2022-07-10T01:33:53;10.38;;;2.25;;
61806;SDS011;47726;52.766;6.606;2022-07-10T01:36:20;9.00;;;2.05;;
61806;SDS011;47726;52.766;6.606;2022-07-10T01:38:46;6.82;;;2.05;;
61806;SDS011;47726;52.766;6.606;2022-07-10T01:41:12;9.50;;;2.10;;
61806;SDS011;47726;52.766;6.606;2022-07-10T01:43:38;8.00;;;2.20;;
61806;SDS011;47726;52.766;6.606;2022-07-10T01:46:10;8.45;;;2.08;;
61806;SDS011;47726;52.766;6.606;2022-07-10T01:48:36;9.82;;;2.03;;
61806;SDS011;47726;52.766;6.606;2022-07-10T01:51:05;6.82;;;2.30;;
61806;SDS011;47726;52.766;6.606;2022-07-10T01:53:32;8.70;;;1.95;;
61806;SDS011;47726;52.766;6.606;2022-07-10T01:55:58;10.75;;;2.40;;
61806;SDS011;47726;52.766;6.606;2022-07-10T01:58:24;10.13;;;2.25;;
61806;SDS011;47726;52.766;6.606;2022-07-10T02:00:50;8.93;;;2.13;;
61806;SDS011;47726;52.766;6.606;2022-07-10T02:03:15;11.27;;;2.22;;
61806;SDS011;47726;52.766;6.606;2022-07-10T02:06:00;8.63;;;2.00;;
61806;SDS011;47726;52.766;6.606;2022-07-10T02:08:25;8.77;;;2.10;;
61806;SDS011;47726;52.766;6.606;2022-07-10T02:10:51;10.63;;;2.28;;
61806;SDS011;47726;52.766;6.606;2022-07-10T02:13:16;9.13;;;2.40;;
61806;SDS011;47726;52.766;6.606;2022-07-10T02:15:45;10.27;;;2.30;;
61806;SDS011;47726;52.766;6.606;2022-07-10T02:18:12;8.32;;;2.00;;
61806;SDS011;47726;52.766;6.606;2022-07-10T02:20:38;9.60;;;2.40;;
61806;SDS011;47726;52.766;6.606;2022-07-10T02:23:04;10.05;;;2.40;;
61806;SDS011;47726;52.766;6.606;2022-07-10T02:25:31;9.85;;;2.40;;
61806;SDS011;47726;52.766;6.606;2022-07-10T02:27:56;7.85;;;2.20;;
61806;SDS011;47726;52.766;6.606;2022-07-10T02:30:22;8.00;;;2.17;;
61806;SDS011;47726;52.766;6.606;2022-07-10T02:32:47;8.90;;;2.38;;
61806;SDS011;47726;52.766;6.606;2022-07-10T02:35:13;8.85;;;1.98;;
61806;SDS011;47726;52.766;6.606;2022-07-10T02:37:38;8.82;;;2.22;;
61806;SDS011;47726;52.766;6.606;2022-07-10T02:40:04;10.75;;;2.42;;
61806;SDS011;47726;52.766;6.606;2022-07-10T02:42:30;7.53;;;2.10;;
61806;SDS011;47726;52.766;6.606;2022-07-10T02:44:56;10.32;;;2.30;;
61806;SDS011;47726;52.766;6.606;2022-07-10T02:47:21;9.18;;;1.92;;
61806;SDS011;47726;52.766;6.606;2022-07-10T02:49:47;11.63;;;2.45;;
61806;SDS011;47726;52.766;6.606;2022-07-10T02:52:12;11.82;;;2.50;;
61806;SDS011;47726;52.766;6.606;2022-07-10T02:54:38;8.05;;;1.90;;
61806;SDS011;47726;52.766;6.606;2022-07-10T02:57:04;7.30;;;2.05;;
61806;SDS011;47726;52.766;6.606;2022-07-10T02:59:30;9.50;;;2.22;;
61806;SDS011;47726;52.766;6.606;2022-07-10T03:01:55;7.00;;;1.70;;
61806;SDS011;47726;52.766;6.606;2022-07-10T03:04:21;6.05;;;2.10;;
61806;SDS011;47726;52.766;6.606;2022-07-10T03:06:46;6.88;;;2.00;;
61806;SDS011;47726;52.766;6.606;2022-07-10T03:09:12;8.63;;;2.20;;
61806;SDS011;47726;52.766;6.606;2022-07-10T03:11:37;8.00;;;2.20;;
61806;SDS011;47726;52.766;6.606;2022-07-10T03:14:03;8.75;;;2.40;;
61806;SDS011;47726;52.766;6.606;2022-07-10T03:16:30;8.57;;;2.40;;
61806;SDS011;47726;52.766;6.606;2022-07-10T03:18:56;6.57;;;1.95;;
61806;SDS011;47726;52.766;6.606;2022-07-10T03:21:22;9.07;;;1.98;;
61806;SDS011;47726;52.766;6.606;2022-07-10T03:23:48;6.43;;;2.22;;
61806;SDS011;47726;52.766;6.606;2022-07-10T03:26:13;8.82;;;2.30;;
61806;SDS011;47726;52.766;6.606;2022-07-10T03:28:39;10.00;;;2.28;;
61806;SDS011;47726;52.766;6.606;2022-07-10T03:31:05;10.02;;;2.20;;
61806;SDS011;47726;52.766;6.606;2022-07-10T03:33:30;7.90;;;2.28;;
61806;SDS011;47726;52.766;6.606;2022-07-10T03:35:56;7.32;;;2.20;;
61806;SDS011;47726;52.766;6.606;2022-07-10T03:38:21;7.95;;;2.20;;
61806;SDS011;47726;52.766;6.606;2022-07-10T03:40:47;9.68;;;2.20;;
61806;SDS011;47726;52.766;6.606;2022-07-10T03:43:13;8.98;;;2.03;;
61806;SDS011;47726;52.766;6.606;2022-07-10T03:45:40;6.75;;;1.90;;
61806;SDS011;47726;52.766;6.606;2022-07-10T03:48:05;8.02;;;1.98;;
61806;SDS011;47726;52.766;6.606;2022-07-10T03:50:32;6.70;;;2.00;;
61806;SDS011;47726;52.766;6.606;2022-07-10T03:52:57;9.23;;;2.10;;
61806;SDS011;47726;52.766;6.606;2022-07-10T03:55:23;7.55;;;2.20;;
61806;SDS011;47726;52.766;6.606;2022-07-10T03:57:49;6.57;;;2.28;;
61806;SDS011;47726;52.766;6.606;2022-07-10T04:00:27;6.10;;;2.08;;
61806;SDS011;47726;52.766;6.606;2022-07-10T04:02:57;11.38;;;2.10;;
61806;SDS011;47726;52.766;6.606;2022-07-10T04:05:24;9.70;;;2.42;;
61806;SDS011;47726;52.766;6.606;2022-07-10T04:07:50;10.63;;;2.30;;
61806;SDS011;47726;52.766;6.606;2022-07-10T04:10:16;9.88;;;2.30;;
61806;SDS011;47726;52.766;6.606;2022-07-10T04:12:42;8.10;;;1.88;;
61806;SDS011;47726;52.766;6.606;2022-07-10T04:15:08;9.77;;;2.25;;
61806;SDS011;47726;52.766;6.606;2022-07-10T04:17:33;10.75;;;2.10;;
61806;SDS011;47726;52.766;6.606;2022-07-10T04:19:59;9.38;;;2.15;;
61806;SDS011;47726;52.766;6.606;2022-07-10T04:22:25;10.00;;;1.90;;
61806;SDS011;47726;52.766;6.606;2022-07-10T04:24:52;7.38;;;2.08;;
61806;SDS011;47726;52.766;6.606;2022-07-10T04:27:21;10.00;;;2.20;;
61806;SDS011;47726;52.766;6.606;2022-07-10T04:29:46;9.32;;;2.20;;
61806;SDS011;47726;52.766;6.606;2022-07-10T04:32:13;10.32;;;2.28;;
61806;SDS011;47726;52.766;6.606;2022-07-10T04:34:39;8.55;;;1.95;;
61806;SDS011;47726;52.766;6.606;2022-07-10T04:37:04;9.38;;;2.00;;
61806;SDS011;47726;52.766;6.606;2022-07-10T04:39:32;9.13;;;2.20;;
61806;SDS011;47726;52.766;6.606;2022-07-10T04:41:58;5.20;;;2.20;;
61806;SDS011;47726;52.766;6.606;2022-07-10T04:44:24;7.30;;;1.85;;
61806;SDS011;47726;52.766;6.606;2022-07-10T04:46:49;7.75;;;1.73;;
61806;SDS011;47726;52.766;6.606;2022-07-10T04:49:15;7.28;;;1.98;;
61806;SDS011;47726;52.766;6.606;2022-07-10T04:51:40;8.10;;;2.00;;
61806;SDS011;47726;52.766;6.606;2022-07-10T04:54:06;8.25;;;2.10;;
61806;SDS011;47726;52.766;6.606;2022-07-10T04:56:32;8.55;;;2.00;;
61806;SDS011;47726;52.766;6.606;2022-07-10T04:58:57;6.60;;;2.17;;
61806;SDS011;47726;52.766;6.606;2022-07-10T05:01:23;5.78;;;1.95;;
61806;SDS011;47726;52.766;6.606;2022-07-10T05:03:48;9.63;;;2.53;;
61806;SDS011;47726;52.766;6.606;2022-07-10T05:06:14;7.90;;;1.80;;
61806;SDS011;47726;52.766;6.606;2022-07-10T05:08:40;6.95;;;2.03;;
61806;SDS011;47726;52.766;6.606;2022-07-10T05:11:05;8.40;;;2.10;;
61806;SDS011;47726;52.766;6.606;2022-07-10T05:13:31;7.97;;;2.28;;
61806;SDS011;47726;52.766;6.606;2022-07-10T05:15:56;8.45;;;2.20;;
61806;SDS011;47726;52.766;6.606;2022-07-10T05:18:22;11.57;;;2.33;;
61806;SDS011;47726;52.766;6.606;2022-07-10T05:20:48;10.13;;;2.25;;
61806;SDS011;47726;52.766;6.606;2022-07-10T05:23:14;9.25;;;2.45;;
61806;SDS011;47726;52.766;6.606;2022-07-10T05:25:40;10.82;;;2.35;;
61806;SDS011;47726;52.766;6.606;2022-07-10T05:28:06;8.40;;;2.40;;
61806;SDS011;47726;52.766;6.606;2022-07-10T05:30:32;7.97;;;2.28;;
61806;SDS011;47726;52.766;6.606;2022-07-10T05:32:58;9.90;;;2.50;;
61806;SDS011;47726;52.766;6.606;2022-07-10T05:35:24;7.53;;;2.22;;
61806;SDS011;47726;52.766;6.606;2022-07-10T05:37:51;9.25;;;2.40;;
61806;SDS011;47726;52.766;6.606;2022-07-10T05:40:17;9.32;;;2.30;;
61806;SDS011;47726;52.766;6.606;2022-07-10T05:42:43;10.15;;;2.72;;
61806;SDS011;47726;52.766;6.606;2022-07-10T05:45:10;12.10;;;2.70;;
61806;SDS011;47726;52.766;6.606;2022-07-10T05:47:36;9.45;;;2.65;;
61806;SDS011;47726;52.766;6.606;2022-07-10T05:50:02;11.25;;;2.30;;
61806;SDS011;47726;52.766;6.606;2022-07-10T05:52:28;11.80;;;2.63;;
61806;SDS011;47726;52.766;6.606;2022-07-10T05:54:54;13.82;;;2.80;;
61806;SDS011;47726;52.766;6.606;2022-07-10T05:57:21;7.68;;;2.30;;
61806;SDS011;47726;52.766;6.606;2022-07-10T05:59:46;9.55;;;2.50;;
61806;SDS011;47726;52.766;6.606;2022-07-10T06:02:12;10.32;;;2.53;;
61806;SDS011;47726;52.766;6.606;2022-07-10T06:04:37;13.93;;;2.90;;
61806;SDS011;47726;52.766;6.606;2022-07-10T06:07:03;9.98;;;2.50;;
61806;SDS011;47726;52.766;6.606;2022-07-10T06:09:29;8.13;;;2.35;;
61806;SDS011;47726;52.766;6.606;2022-07-10T06:11:54;9.45;;;2.50;;
61806;SDS011;47726;52.766;6.606;2022-07-10T06:14:20;10.35;;;2.88;;
61806;SDS011;47726;52.766;6.606;2022-07-10T06:16:45;7.15;;;2.40;;
61806;SDS011;47726;52.766;6.606;2022-07-10T06:19:11;8.30;;;2.88;;
61806;SDS011;47726;52.766;6.606;2022-07-10T06:21:37;7.72;;;2.75;;
61806;SDS011;47726;52.766;6.606;2022-07-10T06:24:03;9.40;;;2.83;;
61806;SDS011;47726;52.766;6.606;2022-07-10T06:26:28;9.45;;;2.70;;
61806;SDS011;47726;52.766;6.606;2022-07-10T06:28:54;11.70;;;2.70;;
61806;SDS011;47726;52.766;6.606;2022-07-10T06:31:20;8.70;;;2.70;;
61806;SDS011;47726;52.766;6.606;2022-07-10T06:33:45;13.38;;;2.58;;
61806;SDS011;47726;52.766;6.606;2022-07-10T06:36:11;10.63;;;2.83;;
61806;SDS011;47726;52.766;6.606;2022-07-10T06:38:37;8.73;;;2.70;;
61806;SDS011;47726;52.766;6.606;2022-07-10T06:41:03;9.00;;;2.58;;
61806;SDS011;47726;52.766;6.606;2022-07-10T06:43:29;11.88;;;2.78;;
61806;SDS011;47726;52.766;6.606;2022-07-10T06:45:54;13.63;;;2.80;;
61806;SDS011;47726;52.766;6.606;2022-07-10T06:48:21;10.35;;;2.80;;
61806;SDS011;47726;52.766;6.606;2022-07-10T06:50:47;10.55;;;2.60;;
61806;SDS011;47726;52.766;6.606;2022-07-10T06:53:13;9.43;;;2.40;;
61806;SDS011;47726;52.766;6.606;2022-07-10T06:55:40;8.05;;;2.30;;
61806;SDS011;47726;52.766;6.606;2022-07-10T06:58:05;9.98;;;2.80;;
61806;SDS011;47726;52.766;6.606;2022-07-10T07:00:31;10.38;;;2.40;;
61806;SDS011;47726;52.766;6.606;2022-07-10T07:02:56;9.77;;;2.50;;
61806;SDS011;47726;52.766;6.606;2022-07-10T07:05:22;8.13;;;2.47;;
61806;SDS011;47726;52.766;6.606;2022-07-10T07:07:47;10.30;;;2.40;;
61806;SDS011;47726;52.766;6.606;2022-07-10T07:10:13;8.82;;;2.60;;
61806;SDS011;47726;52.766;6.606;2022-07-10T07:12:39;6.05;;;2.35;;
61806;SDS011;47726;52.766;6.606;2022-07-10T07:15:04;7.35;;;2.50;;
61806;SDS011;47726;52.766;6.606;2022-07-10T07:17:31;9.02;;;2.42;;
61806;SDS011;47726;52.766;6.606;2022-07-10T07:20:10;7.85;;;1.90;;
61806;SDS011;47726;52.766;6.606;2022-07-10T07:22:55;7.93;;;2.47;;
61806;SDS011;47726;52.766;6.606;2022-07-10T07:25:36;7.15;;;2.40;;
61806;SDS011;47726;52.766;6.606;2022-07-10T07:28:05;7.22;;;2.17;;
61806;SDS011;47726;52.766;6.606;2022-07-10T07:30:31;8.23;;;2.20;;
61806;SDS011;47726;52.766;6.606;2022-07-10T07:32:56;6.57;;;1.95;;
61806;SDS011;47726;52.766;6.606;2022-07-10T07:35:22;6.90;;;1.92;;
61806;SDS011;47726;52.766;6.606;2022-07-10T07:37:48;6.63;;;2.00;;
61806;SDS011;47726;52.766;6.606;2022-07-10T07:40:16;7.38;;;1.83;;
61806;SDS011;47726;52.766;6.606;2022-07-10T07:42:47;7.32;;;2.05;;
61806;SDS011;47726;52.766;6.606;2022-07-10T07:45:13;6.40;;;2.00;;
61806;SDS011;47726;52.766;6.606;2022-07-10T07:47:45;7.55;;;2.30;;
61806;SDS011;47726;52.766;6.606;2022-07-10T07:50:16;5.45;;;1.77;;
61806;SDS011;47726;52.766;6.606;2022-07-10T07:52:43;7.18;;;1.98;;
61806;SDS011;47726;52.766;6.606;2022-07-10T07:55:10;6.65;;;2.05;;
61806;SDS011;47726;52.766;6.606;2022-07-10T07:57:36;7.20;;;2.00;;
61806;SDS011;47726;52.766;6.606;2022-07-10T08:00:03;3.92;;;1.70;;
61806;SDS011;47726;52.766;6.606;2022-07-10T08:02:31;4.30;;;1.80;;
61806;SDS011;47726;52.766;6.606;2022-07-10T08:04:57;4.15;;;1.70;;
61806;SDS011;47726;52.766;6.606;2022-07-10T08:07:22;4.28;;;1.70;;
61806;SDS011;47726;52.766;6.606;2022-07-10T08:09:48;5.05;;;1.58;;
61806;SDS011;47726;52.766;6.606;2022-07-10T08:12:14;4.57;;;1.67;;
61806;SDS011;47726;52.766;6.606;2022-07-10T08:14:40;5.85;;;1.73;;
61806;SDS011;47726;52.766;6.606;2022-07-10T08:17:06;3.58;;;1.73;;
61806;SDS011;47726;52.766;6.606;2022-07-10T08:19:31;6.28;;;1.67;;
61806;SDS011;47726;52.766;6.606;2022-07-10T08:21:57;3.30;;;1.65;;
61806;SDS011;47726;52.766;6.606;2022-07-10T08:24:22;4.88;;;1.67;;
61806;SDS011;47726;52.766;6.606;2022-07-10T08:26:57;4.15;;;1.45;;
61806;SDS011;47726;52.766;6.606;2022-07-10T08:29:23;7.20;;;2.03;;
61806;SDS011;47726;52.766;6.606;2022-07-10T08:31:48;4.82;;;1.73;;
61806;SDS011;47726;52.766;6.606;2022-07-10T08:34:14;5.15;;;1.60;;
61806;SDS011;47726;52.766;6.606;2022-07-10T08:36:40;3.83;;;1.50;;
61806;SDS011;47726;52.766;6.606;2022-07-10T08:39:05;3.03;;;1.42;;
61806;SDS011;47726;52.766;6.606;2022-07-10T08:41:31;3.92;;;1.77;;
61806;SDS011;47726;52.766;6.606;2022-07-10T08:43:59;4.57;;;1.60;;
61806;SDS011;47726;52.766;6.606;2022-07-10T08:46:25;2.95;;;1.60;;
61806;SDS011;47726;52.766;6.606;2022-07-10T08:48:53;4.93;;;1.70;;
61806;SDS011;47726;52.766;6.606;2022-07-10T08:51:23;5.07;;;1.92;;
61806;SDS011;47726;52.766;6.606;2022-07-10T08:53:55;3.85;;;1.70;;
61806;SDS011;47726;52.766;6.606;2022-07-10T08:56:23;5.07;;;1.80;;
61806;SDS011;47726;52.766;6.606;2022-07-10T08:58:49;4.60;;;1.70;;
61806;SDS011;47726;52.766;6.606;2022-07-10T09:01:16;4.03;;;1.55;;
61806;SDS011;47726;52.766;6.606;2022-07-10T09:03:48;3.78;;;1.50;;
61806;SDS011;47726;52.766;6.606;2022-07-10T09:06:15;4.13;;;1.50;;
61806;SDS011;47726;52.766;6.606;2022-07-10T09:08:57;4.45;;;1.67;;
61806;SDS011;47726;52.766;6.606;2022-07-10T09:11:30;5.45;;;1.50;;
61806;SDS011;47726;52.766;6.606;2022-07-10T09:14:00;3.22;;;1.63;;
61806;SDS011;47726;52.766;6.606;2022-07-10T09:16:33;3.83;;;1.58;;
61806;SDS011;47726;52.766;6.606;2022-07-10T09:21:49;4.10;;;1.45;;
61806;SDS011;47726;52.766;6.606;2022-07-10T09:24:17;4.70;;;1.70;;
61806;SDS011;47726;52.766;6.606;2022-07-10T09:26:48;3.83;;;1.67;;
61806;SDS011;47726;52.766;6.606;2022-07-10T09:29:29;4.85;;;1.60;;
61806;SDS011;47726;52.766;6.606;2022-07-10T09:31:59;4.85;;;1.80;;
61806;SDS011;47726;52.766;6.606;2022-07-10T09:37:17;4.28;;;1.73;;
61806;SDS011;47726;52.766;6.606;2022-07-10T09:39:59;5.43;;;1.95;;
61806;SDS011;47726;52.766;6.606;2022-07-10T09:42:36;4.88;;;1.85;;
61806;SDS011;47726;52.766;6.606;2022-07-10T09:47:58;7.70;;;2.13;;
61806;SDS011;47726;52.766;6.606;2022-07-10T09:50:35;5.35;;;1.90;;
61806;SDS011;47726;52.766;6.606;2022-07-10T09:53:08;4.30;;;1.90;;
61806;SDS011;47726;52.766;6.606;2022-07-10T09:55:37;7.28;;;2.00;;
61806;SDS011;47726;52.766;6.606;2022-07-10T09:58:06;5.63;;;2.13;;
61806;SDS011;47726;52.766;6.606;2022-07-10T10:00:34;4.32;;;1.98;;
61806;SDS011;47726;52.766;6.606;2022-07-10T10:03:02;6.43;;;2.17;;
61806;SDS011;47726;52.766;6.606;2022-07-10T10:05:45;5.50;;;2.00;;
61806;SDS011;47726;52.766;6.606;2022-07-10T10:10:51;4.78;;;1.83;;
61806;SDS011;47726;52.766;6.606;2022-07-10T10:13:23;5.43;;;2.13;;
61806;SDS011;47726;52.766;6.606;2022-07-10T10:15:52;6.43;;;1.90;;
61806;SDS011;47726;52.766;6.606;2022-07-10T10:18:20;5.07;;;2.20;;
61806;SDS011;47726;52.766;6.606;2022-07-10T10:20:48;4.40;;;1.80;;
61806;SDS011;47726;52.766;6.606;2022-07-10T10:23:15;5.50;;;2.10;;
61806;SDS011;47726;52.766;6.606;2022-07-10T10:25:45;4.88;;;1.98;;
61806;SDS011;47726;52.766;6.606;2022-07-10T10:28:16;3.15;;;1.80;;
61806;SDS011;47726;52.766;6.606;2022-07-10T10:30:46;4.53;;;1.77;;
61806;SDS011;47726;52.766;6.606;2022-07-10T10:33:54;3.47;;;1.90;;
61806;SDS011;47726;52.766;6.606;2022-07-10T10:36:01;7.00;;;2.00;;
61806;SDS011;47726;52.766;6.606;2022-07-10T10:41:22;4.47;;;2.05;;
61806;SDS011;47726;52.766;6.606;2022-07-10T10:49:20;7.80;;;2.58;;
61806;SDS011;47726;52.766;6.606;2022-07-10T10:52:19;6.22;;;2.10;;
61806;SDS011;47726;52.766;6.606;2022-07-10T10:57:22;7.30;;;2.35;;
61806;SDS011;47726;52.766;6.606;2022-07-10T10:59:49;6.32;;;2.13;;
61806;SDS011;47726;52.766;6.606;2022-07-10T11:04:46;4.60;;;2.13;;
61806;SDS011;47726;52.766;6.606;2022-07-10T11:07:11;3.17;;;1.90;;
61806;SDS011;47726;52.766;6.606;2022-07-10T11:09:37;5.00;;;2.00;;
61806;SDS011;47726;52.766;6.606;2022-07-10T11:12:06;5.05;;;2.08;;
61806;SDS011;47726;52.766;6.606;2022-07-10T11:14:34;6.97;;;2.33;;
61806;SDS011;47726;52.766;6.606;2022-07-10T11:17:05;5.20;;;2.10;;
61806;SDS011;47726;52.766;6.606;2022-07-10T11:19:32;5.65;;;2.08;;
61806;SDS011;47726;52.766;6.606;2022-07-10T11:22:03;5.78;;;2.35;;
61806;SDS011;47726;52.766;6.606;2022-07-10T11:24:39;4.20;;;2.10;;
61806;SDS011;47726;52.766;6.606;2022-07-10T11:27:09;4.32;;;1.85;;
61806;SDS011;47726;52.766;6.606;2022-07-10T11:29:45;7.25;;;2.22;;
61806;SDS011;47726;52.766;6.606;2022-07-10T11:32:15;5.40;;;2.20;;
61806;SDS011;47726;52.766;6.606;2022-07-10T11:34:41;4.15;;;2.05;;
61806;SDS011;47726;52.766;6.606;2022-07-10T11:37:14;5.80;;;2.00;;
61806;SDS011;47726;52.766;6.606;2022-07-10T11:39:40;5.50;;;1.77;;
61806;SDS011;47726;52.766;6.606;2022-07-10T11:42:07;5.10;;;2.20;;
61806;SDS011;47726;52.766;6.606;2022-07-10T11:44:32;5.35;;;2.03;;
61806;SDS011;47726;52.766;6.606;2022-07-10T11:46:58;7.05;;;1.92;;
61806;SDS011;47726;52.766;6.606;2022-07-10T11:49:24;6.20;;;1.80;;
61806;SDS011;47726;52.766;6.606;2022-07-10T11:51:50;3.90;;;1.88;;
61806;SDS011;47726;52.766;6.606;2022-07-10T11:54:16;6.90;;;1.80;;
61806;SDS011;47726;52.766;6.606;2022-07-10T11:56:47;4.78;;;2.05;;
61806;SDS011;47726;52.766;6.606;2022-07-10T11:59:17;6.25;;;2.00;;
61806;SDS011;47726;52.766;6.606;2022-07-10T12:01:47;3.75;;;1.77;;
61806;SDS011;47726;52.766;6.606;2022-07-10T12:04:18;6.78;;;1.90;;
61806;SDS011;47726;52.766;6.606;2022-07-10T12:06:49;3.55;;;1.50;;
61806;SDS011;47726;52.766;6.606;2022-07-10T12:09:16;5.72;;;1.80;;
61806;SDS011;47726;52.766;6.606;2022-07-10T12:11:45;4.75;;;1.92;;
61806;SDS011;47726;52.766;6.606;2022-07-10T12:14:26;5.00;;;1.77;;
61806;SDS011;47726;52.766;6.606;2022-07-10T12:16:52;4.13;;;1.77;;
61806;SDS011;47726;52.766;6.606;2022-07-10T12:19:23;5.88;;;2.00;;
61806;SDS011;47726;52.766;6.606;2022-07-10T12:21:58;3.67;;;1.90;;
61806;SDS011;47726;52.766;6.606;2022-07-10T12:24:24;3.92;;;2.00;;
61806;SDS011;47726;52.766;6.606;2022-07-10T12:26:51;6.70;;;2.00;;
61806;SDS011;47726;52.766;6.606;2022-07-10T12:31:43;7.45;;;2.00;;
61806;SDS011;47726;52.766;6.606;2022-07-10T12:34:10;6.80;;;2.08;;
61806;SDS011;47726;52.766;6.606;2022-07-10T12:39:09;6.65;;;2.15;;
61806;SDS011;47726;52.766;6.606;2022-07-10T12:41:52;7.47;;;2.13;;
61806;SDS011;47726;52.766;6.606;2022-07-10T12:47:02;6.70;;;1.88;;
61806;SDS011;47726;52.766;6.606;2022-07-10T12:49:29;4.88;;;1.90;;
61806;SDS011;47726;52.766;6.606;2022-07-10T12:51:54;5.80;;;2.05;;
61806;SDS011;47726;52.766;6.606;2022-07-10T12:54:36;5.97;;;2.05;;
61806;SDS011;47726;52.766;6.606;2022-07-10T12:57:05;4.80;;;2.00;;
61806;SDS011;47726;52.766;6.606;2022-07-10T12:59:36;5.07;;;2.10;;
61806;SDS011;47726;52.766;6.606;2022-07-10T13:04:53;6.68;;;2.03;;
61806;SDS011;47726;52.766;6.606;2022-07-10T13:07:28;5.43;;;2.00;;
61806;SDS011;47726;52.766;6.606;2022-07-10T13:10:04;6.63;;;2.10;;
61806;SDS011;47726;52.766;6.606;2022-07-10T13:12:31;7.13;;;2.20;;
61806;SDS011;47726;52.766;6.606;2022-07-10T13:14:58;5.82;;;1.92;;
61806;SDS011;47726;52.766;6.606;2022-07-10T13:17:24;3.47;;;2.03;;
61806;SDS011;47726;52.766;6.606;2022-07-10T13:19:50;5.18;;;2.03;;
61806;SDS011;47726;52.766;6.606;2022-07-10T13:22:19;5.50;;;2.10;;
61806;SDS011;47726;52.766;6.606;2022-07-10T13:24:44;8.15;;;1.90;;
61806;SDS011;47726;52.766;6.606;2022-07-10T13:27:10;5.07;;;1.90;;
61806;SDS011;47726;52.766;6.606;2022-07-10T13:29:35;4.25;;;1.80;;
61806;SDS011;47726;52.766;6.606;2022-07-10T13:32:01;5.72;;;1.90;;
61806;SDS011;47726;52.766;6.606;2022-07-10T13:34:27;6.18;;;1.90;;
61806;SDS011;47726;52.766;6.606;2022-07-10T13:36:54;3.95;;;1.77;;
61806;SDS011;47726;52.766;6.606;2022-07-10T13:39:20;5.70;;;1.90;;
61806;SDS011;47726;52.766;6.606;2022-07-10T13:41:46;5.45;;;1.90;;
61806;SDS011;47726;52.766;6.606;2022-07-10T13:44:12;4.03;;;1.67;;
61806;SDS011;47726;52.766;6.606;2022-07-10T13:46:37;3.83;;;1.90;;
61806;SDS011;47726;52.766;6.606;2022-07-10T13:49:05;3.78;;;1.77;;
61806;SDS011;47726;52.766;6.606;2022-07-10T13:51:30;4.32;;;1.85;;
61806;SDS011;47726;52.766;6.606;2022-07-10T13:53:56;4.50;;;1.85;;
61806;SDS011;47726;52.766;6.606;2022-07-10T13:56:22;5.90;;;1.92;;
61806;SDS011;47726;52.766;6.606;2022-07-10T13:58:48;3.42;;;1.88;;
61806;SDS011;47726;52.766;6.606;2022-07-10T14:01:14;8.43;;;3.45;;
61806;SDS011;47726;52.766;6.606;2022-07-10T14:03:40;5.82;;;2.05;;
61806;SDS011;47726;52.766;6.606;2022-07-10T14:06:05;6.00;;;2.10;;
61806;SDS011;47726;52.766;6.606;2022-07-10T14:08:31;5.55;;;2.03;;
61806;SDS011;47726;52.766;6.606;2022-07-10T14:10:57;5.32;;;1.80;;
61806;SDS011;47726;52.766;6.606;2022-07-10T14:13:22;4.72;;;1.55;;
61806;SDS011;47726;52.766;6.606;2022-07-10T14:15:48;3.30;;;1.70;;
61806;SDS011;47726;52.766;6.606;2022-07-10T14:18:14;5.70;;;1.60;;
61806;SDS011;47726;52.766;6.606;2022-07-10T14:20:59;2.83;;;1.52;;
61806;SDS011;47726;52.766;6.606;2022-07-10T14:23:28;4.95;;;1.85;;
61806;SDS011;47726;52.766;6.606;2022-07-10T14:25:54;3.58;;;1.75;;
61806;SDS011;47726;52.766;6.606;2022-07-10T14:28:20;5.90;;;1.80;;
61806;SDS011;47726;52.766;6.606;2022-07-10T14:30:48;4.55;;;1.75;;
61806;SDS011;47726;52.766;6.606;2022-07-10T14:33:14;6.05;;;2.00;;
61806;SDS011;47726;52.766;6.606;2022-07-10T14:35:40;4.75;;;2.00;;
61806;SDS011;47726;52.766;6.606;2022-07-10T14:38:05;6.63;;;1.90;;
61806;SDS011;47726;52.766;6.606;2022-07-10T14:40:31;5.20;;;1.95;;
61806;SDS011;47726;52.766;6.606;2022-07-10T14:42:56;4.93;;;1.90;;
61806;SDS011;47726;52.766;6.606;2022-07-10T14:45:23;4.00;;;1.90;;
61806;SDS011;47726;52.766;6.606;2022-07-10T14:47:49;4.25;;;1.80;;
61806;SDS011;47726;52.766;6.606;2022-07-10T14:50:15;3.67;;;1.77;;
61806;SDS011;47726;52.766;6.606;2022-07-10T14:52:41;6.43;;;1.83;;
61806;SDS011;47726;52.766;6.606;2022-07-10T14:55:07;5.68;;;1.88;;
61806;SDS011;47726;52.766;6.606;2022-07-10T14:57:33;5.65;;;1.90;;
61806;SDS011;47726;52.766;6.606;2022-07-10T14:59:59;6.80;;;1.88;;
61806;SDS011;47726;52.766;6.606;2022-07-10T15:02:24;4.63;;;1.85;;
61806;SDS011;47726;52.766;6.606;2022-07-10T15:04:50;4.35;;;1.67;;
61806;SDS011;47726;52.766;6.606;2022-07-10T15:07:15;4.60;;;1.73;;
61806;SDS011;47726;52.766;6.606;2022-07-10T15:09:43;6.35;;;1.70;;
61806;SDS011;47726;52.766;6.606;2022-07-10T15:12:12;6.57;;;2.10;;
61806;SDS011;47726;52.766;6.606;2022-07-10T15:14:38;3.97;;;2.00;;
61806;SDS011;47726;52.766;6.606;2022-07-10T15:17:03;6.93;;;1.92;;
61806;SDS011;47726;52.766;6.606;2022-07-10T15:19:29;3.13;;;1.67;;
61806;SDS011;47726;52.766;6.606;2022-07-10T15:21:55;6.20;;;2.00;;
61806;SDS011;47726;52.766;6.606;2022-07-10T15:24:21;4.95;;;1.80;;